Time;durP1;ratioP1;P1;durP2;ratioP2;P2;SDS_P1;SDS_P2;PMS_P1;PMS_P2;Temp;Humidity;BMP_temperature;BMP_pressure;BME280_temperature;BME280_humidity;BME280_pressure;Samples;Min_cycle;Max_cycle;Signal;HPM_P1;HPM_P2
2022/09/13 00:03:10;;;;;;;3.50;3.15;;;;;;;10.79;100.00;96366.38;10374525;28;20725;-73
2022/09/13 00:08:12;;;;;;;5.50;3.45;;;;;;;10.52;100.00;96364.94;10373970;28;20213;-73
2022/09/13 00:13:14;;;;;;;4.30;3.67;;;;;;;10.57;100.00;96356.59;10356385;28;20614;-74
2022/09/13 00:18:15;;;;;;;5.88;4.25;;;;;;;10.51;100.00;96355.44;10373604;28;20346;-73
2022/09/13 00:23:16;;;;;;;5.33;3.67;;;;;;;10.69;100.00;96344.81;10373692;28;20192;-72
2022/09/13 00:28:16;;;;;;;6.13;3.93;;;;;;;10.65;100.00;96346.09;10369472;28;20195;-73
2022/09/13 00:33:16;;;;;;;3.97;3.57;;;;;;;10.68;100.00;96338.72;10373664;28;20189;-74
2022/09/13 00:38:17;;;;;;;3.80;3.40;;;;;;;10.76;100.00;96335.28;10372562;28;20236;-73
2022/09/13 00:43:19;;;;;;;4.53;3.80;;;;;;;10.80;100.00;96314.81;10372847;28;20284;-73
2022/09/13 00:48:21;;;;;;;3.85;3.38;;;;;;;10.74;100.00;96305.00;10372705;28;20293;-73
2022/09/13 00:53:30;;;;;;;4.18;3.55;;;;;;;10.73;100.00;96300.72;10354929;28;20307;-73
2022/09/13 00:58:39;;;;;;;4.57;3.90;;;;;;;10.67;100.00;96297.81;10353473;28;20713;-73
2022/09/13 01:03:40;;;;;;;7.00;4.17;;;;;;;10.56;100.00;96294.72;10352909;28;20204;-73
2022/09/13 01:08:42;;;;;;;5.83;3.80;;;;;;;10.61;100.00;96290.63;10366318;28;20243;-74
2022/09/13 01:13:43;;;;;;;7.40;4.60;;;;;;;10.62;100.00;96287.00;10371062;28;20311;-73
2022/09/13 01:18:43;;;;;;;4.57;3.92;;;;;;;10.71;100.00;96283.38;10371505;28;20229;-74
2022/09/13 01:24:02;;;;;;;5.70;4.13;;;;;;;10.72;100.00;96278.97;10370610;28;20209;-73
2022/09/13 01:29:20;;;;;;;7.65;4.13;;;;;;;10.66;100.00;96275.22;10353423;28;20201;-73
2022/09/13 01:34:32;;;;;;;5.60;3.70;;;;;;;10.60;100.00;96270.63;10353587;28;20235;-74
2022/09/13 01:39:57;;;;;;;5.07;3.95;;;;;;;10.53;100.00;96264.44;10353266;28;20354;-73
2022/09/13 01:45:14;;;;;;;8.80;4.27;;;;;;;10.59;100.00;96253.28;10370435;28;20232;-73
2022/09/13 01:50:19;;;;;;;6.00;4.05;;;;;;;10.63;100.00;96251.97;10351079;28;20189;-73
2022/09/13 01:55:26;;;;;;;5.35;4.35;;;;;;;10.55;100.00;96243.31;10351218;28;20201;-74
2022/09/13 02:00:27;;;;;;;7.20;4.80;;;;;;;10.51;100.00;96242.84;10368016;28;20675;-73
2022/09/13 02:05:45;;;;;;;7.40;5.10;;;;;;;10.45;100.00;96238.28;10368362;28;20575;-74
2022/09/13 02:10:49;;;;;;;5.33;4.50;;;;;;;10.53;100.00;96227.75;10349733;28;20276;-73
2022/09/13 02:15:58;;;;;;;7.17;4.60;;;;;;;10.62;100.00;96223.31;10350257;28;20225;-73
2022/09/13 02:21:01;;;;;;;5.30;4.53;;;;;;;10.63;100.00;96220.53;10368882;28;20197;-74
2022/09/13 02:26:03;;;;;;;13.13;5.20;;;;;;;10.65;100.00;96226.41;10334714;28;20181;-73
2022/09/13 02:31:07;;;;;;;5.82;4.88;;;;;;;10.65;100.00;96228.22;10369047;28;20239;-73
2022/09/13 02:36:12;;;;;;;6.85;4.32;;;;;;;10.77;100.00;96210.34;10368543;28;20224;-73
2022/09/13 02:41:16;;;;;;;7.30;4.50;;;;;;;10.79;100.00;96219.66;10351384;28;20692;-74
2022/09/13 02:46:26;;;;;;;6.43;4.20;;;;;;;10.79;100.00;96218.84;10368501;28;20590;-72
2022/09/13 02:51:56;;;;;;;5.95;4.68;;;;;;;10.83;100.00;96209.66;10334329;28;20280;-73
2022/09/13 02:57:05;;;;;;;5.23;4.33;;;;;;;10.85;100.00;96218.16;10360709;28;20295;-73
2022/09/13 03:02:15;;;;;;;8.82;4.85;;;;;;;10.81;100.00;96217.69;10366740;28;20237;-73
2022/09/13 03:07:15;;;;;;;5.95;4.32;;;;;;;10.83;100.00;96207.84;10345944;28;20200;-73
2022/09/13 03:12:41;;;;;;;8.93;4.45;;;;;;;10.76;100.00;96198.22;10360628;28;20193;-73
2022/09/13 03:17:54;;;;;;;5.28;4.13;;;;;;;10.75;100.00;96201.81;10355587;28;20527;-73
2022/09/13 03:23:12;;;;;;;5.38;4.40;;;;;;;10.75;100.00;96191.34;10342064;28;20224;-73
2022/09/13 03:28:43;;;;;;;7.60;4.27;;;;;;;10.71;100.00;96183.81;10327416;28;20189;-72
2022/09/13 03:33:56;;;;;;;5.57;4.78;;;;;;;10.65;100.00;96181.88;10361699;28;20232;-72
2022/09/13 03:39:06;;;;;;;5.22;4.72;;;;;;;10.78;100.00;96167.41;10360967;28;20233;-73
2022/09/13 03:44:09;;;;;;;9.52;4.65;;;;;;;10.75;100.00;96170.38;10361056;28;20248;-72
2022/09/13 03:49:13;;;;;;;5.60;4.22;;;;;;;10.75;100.00;96162.53;10342883;28;20759;-73
2022/09/13 03:54:19;;;;;;;6.43;4.55;;;;;;;10.65;100.00;96174.03;10342294;28;20198;-73
2022/09/13 03:59:20;;;;;;;7.35;4.32;;;;;;;10.73;100.00;96165.31;10342183;28;20702;-73
2022/09/13 04:04:20;;;;;;;5.55;4.28;;;;;;;10.85;100.00;96161.31;10365572;28;20292;-73
2022/09/13 04:09:21;;;;;;;5.15;4.28;;;;;;;10.89;100.00;96152.13;10366454;28;20186;-73
2022/09/13 04:14:25;;;;;;;5.10;4.10;;;;;;;10.96;100.00;96175.03;10366567;28;20189;-73
2022/09/13 04:19:25;;;;;;;4.75;4.00;;;;;;;11.02;100.00;96171.72;10366438;28;20225;-73
2022/09/13 04:24:28;;;;;;;7.90;4.10;;;;;;;11.01;100.00;96164.84;10365942;28;20185;-73
2022/09/13 04:29:28;;;;;;;5.07;3.90;;;;;;;10.98;100.00;96163.41;10365867;28;20197;-72
2022/09/13 04:34:29;;;;;;;5.63;4.30;;;;;;;10.85;100.00;96163.13;10368618;28;20213;-72
2022/09/13 04:39:29;;;;;;;8.23;4.00;;;;;;;10.88;100.00;96168.03;10373208;28;20217;-73
2022/09/13 04:44:30;;;;;;;6.20;4.47;;;;;;;10.95;100.00;96168.16;10373277;28;20307;-72
2022/09/13 04:49:30;;;;;;;5.72;4.47;;;;;;;10.94;100.00;96180.44;10372873;28;20193;-73
2022/09/13 04:54:31;;;;;;;7.78;4.40;;;;;;;11.00;100.00;96174.50;10372830;28;20241;-72
2022/09/13 04:59:31;;;;;;;5.07;4.32;;;;;;;11.09;100.00;96172.66;10372035;28;20229;-73
2022/09/13 05:04:32;;;;;;;6.88;4.88;;;;;;;11.28;100.00;96168.78;10372490;28;20193;-73
2022/09/13 05:09:32;;;;;;;6.47;4.57;;;;;;;11.36;100.00;96170.53;10372212;28;20245;-72
2022/09/13 05:14:33;;;;;;;8.02;4.93;;;;;;;11.46;100.00;96159.81;10371731;28;20197;-73
2022/09/13 05:19:34;;;;;;;4.93;4.32;;;;;;;11.59;100.00;96160.84;10371578;28;20308;-73
2022/09/13 05:24:34;;;;;;;5.03;4.10;;;;;;;11.76;100.00;96139.69;10371822;28;20197;-73
2022/09/13 05:29:35;;;;;;;9.02;4.45;;;;;;;11.94;100.00;96136.78;10370892;28;20672;-73
2022/09/13 05:34:35;;;;;;;4.65;4.15;;;;;;;12.24;100.00;96136.81;10371331;28;20693;-73
2022/09/13 05:39:36;;;;;;;9.60;5.03;;;;;;;12.30;100.00;96130.84;10370648;28;20316;-73
2022/09/13 05:44:36;;;;;;;7.05;4.63;;;;;;;12.61;100.00;96140.31;10370221;28;20205;-73
2022/09/13 05:49:36;;;;;;;6.55;4.70;;;;;;;12.80;100.00;96128.41;10370300;28;20199;-73
2022/09/13 05:54:37;;;;;;;4.75;4.15;;;;;;;13.08;100.00;96128.53;10370198;28;20193;-73
2022/09/13 05:59:37;;;;;;;6.38;4.80;;;;;;;12.97;100.00;96111.41;10369221;28;20260;-73
2022/09/13 06:04:37;;;;;;;4.90;4.05;;;;;;;13.41;100.00;96099.09;10370000;28;20713;-73
2022/09/13 06:09:38;;;;;;;4.90;4.35;;;;;;;14.61;100.00;96094.63;10369846;28;20725;-73
2022/09/13 06:14:38;;;;;;;5.85;4.30;;;;;;;14.62;100.00;96096.25;10369208;28;20685;-73
2022/09/13 06:19:39;;;;;;;6.32;4.45;;;;;;;14.91;100.00;96094.28;10369480;28;20235;-73
2022/09/13 06:24:39;;;;;;;6.47;4.05;;;;;;;15.66;100.00;96074.88;10352226;28;20197;-73
2022/09/13 06:29:40;;;;;;;5.25;3.92;;;;;;;16.59;100.00;96053.53;10367843;28;20201;-73
2022/09/13 06:34:40;;;;;;;4.38;3.20;;;;;;;16.79;94.00;96023.53;10356454;28;20279;-73
2022/09/13 06:39:40;;;;;;;3.92;3.63;;;;;;;16.58;94.97;96046.63;10368479;28;20327;-73
2022/09/13 06:44:41;;;;;;;4.13;3.47;;;;;;;16.43;95.23;96055.84;10368588;28;20190;-73
2022/09/13 06:49:41;;;;;;;7.85;3.35;;;;;;;16.21;95.42;96062.22;10368463;28;20201;-73
2022/09/13 06:54:42;;;;;;;3.83;3.22;;;;;;;16.54;96.10;96068.44;10368695;28;20193;-73
2022/09/13 06:59:42;;;;;;;6.05;3.80;;;;;;;17.04;93.07;96057.97;10366371;28;20237;-73
2022/09/13 07:04:43;;;;;;;6.85;3.45;;;;;;;17.81;88.63;96038.47;10368146;28;20193;-73
2022/09/13 07:09:43;;;;;;;3.65;3.17;;;;;;;18.07;85.38;96018.03;10366873;28;20247;-73
2022/09/13 07:14:43;;;;;;;4.03;3.70;;;;;;;17.75;88.47;96048.09;10367515;28;20288;-73
2022/09/13 07:19:44;;;;;;;4.63;4.00;;;;;;;17.55;89.03;96045.63;10367705;28;20240;-73
2022/09/13 07:24:44;;;;;;;3.65;3.35;;;;;;;17.90;88.69;96034.53;10367288;28;20193;-73
2022/09/13 07:29:45;;;;;;;5.68;3.45;;;;;;;17.78;88.64;96045.00;10367507;28;20288;-74
2022/09/13 07:34:45;;;;;;;6.43;2.92;;;;;;;17.88;86.42;96033.09;10367160;28;20213;-73
2022/09/13 07:39:46;;;;;;;2.97;2.67;;;;;;;17.95;84.79;96024.06;10367138;28;20225;-73
2022/09/13 07:44:46;;;;;;;5.22;2.70;;;;;;;18.16;83.88;96019.34;10366744;28;20193;-74
2022/09/13 07:49:46;;;;;;;2.55;1.95;;;;;;;18.33;81.55;95998.34;10367195;28;20272;-73
2022/09/13 07:54:47;;;;;;;2.60;2.40;;;;;;;17.96;83.70;96036.31;10367167;28;20227;-73
2022/09/13 07:59:47;;;;;;;2.90;2.17;;;;;;;18.45;83.15;96033.72;10366408;28;20225;-73
2022/09/13 08:04:48;;;;;;;2.60;2.40;;;;;;;18.10;84.40;96038.78;10366916;28;20200;-73
2022/09/13 08:09:49;;;;;;;4.47;2.38;;;;;;;17.92;85.77;96055.50;10370825;28;20189;-73
2022/09/13 08:14:49;;;;;;;4.07;2.97;;;;;;;17.34;86.88;96060.03;10374264;28;20221;-73
2022/09/13 08:19:49;;;;;;;3.60;2.50;;;;;;;16.98;92.51;96090.59;10374163;28;20316;-73
2022/09/13 08:24:50;;;;;;;5.32;2.80;;;;;;;16.69;96.52;96110.44;10373717;28;20185;-73
2022/09/13 08:29:50;;;;;;;3.05;2.80;;;;;;;16.25;100.00;96114.66;10356786;28;20221;-73
2022/09/13 08:34:51;;;;;;;6.47;3.50;;;;;;;15.98;100.00;96131.38;10373311;28;20267;-74
2022/09/13 08:39:52;;;;;;;5.57;3.92;;;;;;;15.68;100.00;96134.41;10365531;28;20221;-73
2022/09/13 08:44:54;;;;;;;8.77;5.97;;;;;;;15.44;100.00;96146.38;10372672;28;20193;-74
2022/09/13 08:50:18;;;;;;;9.77;4.93;;;;;;;15.61;100.00;96152.06;10355406;28;20197;-75
2022/09/13 08:55:24;;;;;;;7.65;5.43;;;;;;;15.65;100.00;96133.97;10354958;28;20189;-74
2022/09/13 09:00:31;;;;;;;7.10;5.25;;;;;;;15.71;100.00;96130.53;10372571;28;20243;-74
2022/09/13 09:05:41;;;;;;;10.73;6.55;;;;;;;15.72;100.00;96132.16;10355149;28;20201;-74
2022/09/13 09:10:46;;;;;;;5.78;4.90;;;;;;;15.99;100.00;96125.06;10354204;28;20228;-74
2022/09/13 09:15:52;;;;;;;5.03;4.55;;;;;;;16.10;100.00;96102.50;10371887;28;20196;-74
2022/09/13 09:20:55;;;;;;;6.95;5.38;;;;;;;16.28;100.00;96080.72;10329934;28;20190;-74
2022/09/13 09:26:00;;;;;;;4.78;4.38;;;;;;;16.72;100.00;96094.16;10316584;28;20205;-74
2022/09/13 09:31:09;;;;;;;5.22;4.80;;;;;;;17.00;100.00;96080.63;10329290;28;20201;-74
2022/09/13 09:36:25;;;;;;;7.25;3.95;;;;;;;17.26;100.00;96071.69;10330767;28;20701;-74
2022/09/13 09:41:27;;;;;;;6.38;4.60;;;;;;;17.35;100.00;96069.63;10329004;28;20221;-73
2022/09/13 09:46:32;;;;;;;5.78;3.20;;;;;;;17.89;98.50;96032.91;10330730;28;20647;-73
2022/09/13 09:51:32;;;;;;;5.28;3.20;;;;;;;18.16;94.77;96014.88;10328494;28;20272;-73
2022/09/13 09:56:33;;;;;;;4.25;3.17;;;;;;;18.69;93.86;96020.53;10312753;28;20222;-73
2022/09/13 10:01:36;;;;;;;5.78;3.22;;;;;;;19.04;90.66;95999.44;10329667;28;20701;-74
2022/09/13 10:06:39;;;;;;;4.65;3.50;;;;;;;19.59;87.49;95982.41;10328349;28;20182;-72
2022/09/13 10:11:42;;;;;;;2.83;2.63;;;;;;;19.82;84.91;95978.16;10329182;28;20186;-73
2022/09/13 10:16:43;;;;;;;2.88;2.53;;;;;;;18.98;86.52;95994.25;10329003;28;20305;-73
2022/09/13 10:22:00;;;;;;;3.95;2.72;;;;;;;19.65;85.74;95977.19;10328879;28;20554;-73
2022/09/13 10:27:03;;;;;;;5.43;2.72;;;;;;;19.66;85.23;95984.94;10328713;28;20666;-73
2022/09/13 10:32:07;;;;;;;3.45;2.10;;;;;;;20.02;80.28;95943.19;10311002;28;20627;-73
2022/09/13 10:37:16;;;;;;;3.08;2.28;;;;;;;19.01;84.66;95988.47;10310995;28;20224;-72
2022/09/13 10:42:20;;;;;;;2.10;1.90;;;;;;;19.04;84.38;95977.41;10328176;28;20201;-72
2022/09/13 10:47:28;;;;;;;2.50;2.30;;;;;;;19.01;85.66;95980.50;10328683;28;20661;-73
2022/09/13 10:52:34;;;;;;;3.92;2.55;;;;;;;19.58;85.46;95966.69;10310395;28;20652;-74
2022/09/13 10:57:36;;;;;;;2.63;2.40;;;;;;;19.72;82.74;95960.09;10327523;28;20230;-74
2022/09/13 11:02:42;;;;;;;2.28;2.08;;;;;;;20.35;81.48;95954.19;10327626;28;20198;-73
2022/09/13 11:07:48;;;;;;;2.50;2.30;;;;;;;21.12;75.64;95910.28;10327712;28;20746;-73
2022/09/13 11:13:05;;;;;;;4.22;2.40;;;;;;;20.38;76.64;95911.16;10325394;28;20217;-74
2022/09/13 11:18:05;;;;;;;2.92;2.20;;;;;;;21.18;76.04;95918.09;10327088;28;20570;-72
2022/09/13 11:23:42;;;;;;;2.55;2.35;;;;;;;21.12;76.12;95929.75;10327207;28;20277;-73
2022/09/13 11:29:04;;;;;;;3.70;2.40;;;;;;;20.00;78.05;95931.16;10327216;28;20345;-73
2022/09/13 11:34:21;;;;;;;3.53;2.50;;;;;;;20.10;77.74;95915.44;10326547;28;20214;-73
2022/09/13 11:39:35;;;;;;;3.33;2.28;;;;;;;19.73;78.41;95923.69;10325671;28;20312;-73
2022/09/13 11:44:47;;;;;;;2.70;2.38;;;;;;;20.21;78.53;95925.22;10329992;28;20261;-74
2022/09/13 11:49:57;;;;;;;3.78;1.92;;;;;;;20.19;76.96;95900.72;10335312;28;20264;-73
2022/09/13 11:55:04;;;;;;;3.75;2.03;;;;;;;20.76;75.52;95899.06;10333686;28;20348;-73
2022/09/13 12:00:14;;;;;;;3.60;2.08;;;;;;;20.63;75.12;95882.34;10334061;28;20237;-73
2022/09/13 12:05:20;;;;;;;3.78;1.88;;;;;;;21.95;72.57;95880.25;10316987;28;20206;-73
2022/09/13 12:10:28;;;;;;;3.15;1.70;;;;;;;21.94;70.20;95858.06;10333238;28;20193;-73
2022/09/13 12:15:31;;;;;;;2.95;1.80;;;;;;;23.19;64.13;95794.03;10316382;28;20300;-73
2022/09/13 12:20:47;;;;;;;4.90;1.95;;;;;;;22.33;66.40;95817.97;10333652;28;20710;-73
2022/09/13 12:25:59;;;;;;;2.03;1.70;;;;;;;22.23;69.72;95861.31;10332489;28;20189;-73
2022/09/13 12:31:09;;;;;;;2.53;1.40;;;;;;;23.95;62.30;95777.47;10333910;28;20749;-73
2022/09/13 12:36:28;;;;;;;1.77;1.50;;;;;;;22.37;64.64;95795.03;10371009;28;20225;-73
2022/09/13 12:41:59;;;;;;;5.05;1.55;;;;;;;22.13;65.08;95799.06;10373055;28;20641;-72
2022/09/13 12:47:24;;;;;;;3.47;1.48;;;;;;;24.69;59.85;95756.63;10373018;28;20192;-73
2022/09/13 12:52:36;;;;;;;3.20;1.70;;;;;;;22.44;64.09;95781.50;10372849;28;20263;-72
2022/09/13 12:58:05;;;;;;;1.95;1.60;;;;;;;23.48;59.65;95727.59;10371266;28;20252;-72
2022/09/13 13:03:14;;;;;;;2.47;2.00;;;;;;;22.82;60.83;95738.75;10354490;28;20292;-72
2022/09/13 13:08:20;;;;;;;4.53;1.42;;;;;;;21.00;65.10;95777.22;10372492;28;20271;-72
2022/09/13 13:13:33;;;;;;;3.90;1.20;;;;;;;21.58;64.90;95792.88;10371494;28;20209;-72
2022/09/13 13:18:50;;;;;;;2.65;1.50;;;;;;;22.46;63.30;95773.22;10354554;28;20930;-72
2022/09/13 13:24:16;;;;;;;3.72;1.30;;;;;;;22.70;61.09;95729.09;10354574;28;20208;-72
2022/09/13 13:29:19;;;;;;;2.10;1.42;;;;;;;22.17;63.67;95776.94;10371614;28;20205;-72
2022/09/13 13:34:42;;;;;;;3.95;1.77;;;;;;;23.07;63.03;95778.97;10370984;28;20716;-72
2022/09/13 13:39:44;;;;;;;3.90;1.40;;;;;;;24.26;59.94;95750.75;10353448;28;20221;-72
2022/09/13 13:44:45;;;;;;;3.05;1.25;;;;;;;25.17;58.01;95742.84;10353227;28;20193;-72
2022/09/13 13:49:58;;;;;;;4.40;1.30;;;;;;;25.50;55.73;95713.78;10371109;28;20200;-72
2022/09/13 13:55:19;;;;;;;1.08;1.05;;;;;;;26.12;53.35;95665.88;10370835;28;20248;-72
2022/09/13 14:00:25;;;;;;;2.58;1.20;;;;;;;26.56;51.50;95647.25;10369747;28;20229;-72
2022/09/13 14:05:59;;;;;;;2.55;0.82;;;;;;;24.24;53.91;95634.31;10336189;28;20683;-72
2022/09/13 14:11:02;;;;;;;2.05;0.90;;;;;;;23.41;56.88;95685.06;10351332;28;20204;-74
2022/09/13 14:16:09;;;;;;;1.45;1.20;;;;;;;24.35;56.50;95702.81;10352340;28;20193;-72
2022/09/13 14:21:23;;;;;;;1.58;1.30;;;;;;;23.25;58.17;95699.47;10351929;28;20255;-72
2022/09/13 14:26:23;;;;;;;5.05;1.33;;;;;;;22.77;58.95;95705.63;10369120;28;20732;-72
2022/09/13 14:31:24;;;;;;;1.38;1.27;;;;;;;23.58;57.92;95697.41;10369090;28;20205;-72
2022/09/13 14:36:26;;;;;;;1.30;1.20;;;;;;;21.76;62.93;95749.09;10368767;28;20225;-72
2022/09/13 14:41:32;;;;;;;1.58;1.35;;;;;;;20.40;66.02;95784.84;10368311;28;20219;-72
2022/09/13 14:46:37;;;;;;;1.35;1.25;;;;;;;20.87;64.56;95765.06;10348277;28;20280;-71
2022/09/13 14:51:45;;;;;;;6.30;1.63;;;;;;;20.21;67.20;95778.94;10327598;28;20226;-72
2022/09/13 14:56:52;;;;;;;3.20;1.55;;;;;;;20.58;67.42;95783.81;10326490;28;20221;-72
2022/09/13 15:01:53;;;;;;;1.63;1.52;;;;;;;20.27;69.75;95809.88;10310021;28;20694;-72
2022/09/13 15:07:25;;;;;;;14.77;1.83;;;;;;;20.46;69.55;95801.69;10327944;28;20198;-72
2022/09/13 15:12:27;;;;;;;1.58;1.38;;;;;;;20.39;70.71;95809.03;10326500;28;20630;-72
2022/09/13 15:17:27;;;;;;;2.30;1.50;;;;;;;19.92;72.49;95829.50;10326874;28;20218;-72
2022/09/13 15:22:30;;;;;;;3.22;1.40;;;;;;;20.22;72.94;95839.06;10326820;28;20633;-72
2022/09/13 15:27:42;;;;;;;2.97;1.48;;;;;;;20.91;71.16;95824.75;10325765;28;20185;-72
2022/09/13 15:32:43;;;;;;;1.98;1.70;;;;;;;21.56;69.20;95803.78;10326813;28;20204;-72
2022/09/13 15:37:43;;;;;;;1.77;1.35;;;;;;;22.23;66.68;95773.28;10326538;28;20226;-72
2022/09/13 15:42:50;;;;;;;1.50;1.42;;;;;;;21.96;67.35;95786.66;10330757;28;20213;-72
2022/09/13 15:47:51;;;;;;;2.28;1.50;;;;;;;21.57;67.98;95792.09;10327154;28;20229;-72
2022/09/13 15:52:53;;;;;;;2.60;1.48;;;;;;;20.87;68.88;95785.56;10324937;28;20197;-72
2022/09/13 15:57:54;;;;;;;1.50;1.40;;;;;;;21.33;68.21;95783.50;10326081;28;20645;-72
2022/09/13 16:02:54;;;;;;;1.65;1.35;;;;;;;21.23;69.14;95802.03;10326298;28;20194;-72
2022/09/13 16:07:57;;;;;;;43.13;22.30;;;;;;;21.08;67.09;95770.69;10326536;28;20190;-72
2022/09/13 16:12:57;;;;;;;4.43;3.47;;;;;;;21.25;68.52;95787.41;10325392;28;20710;-73
2022/09/13 16:17:58;;;;;;;1.92;1.63;;;;;;;20.88;67.74;95772.00;10308780;28;20265;-72
2022/09/13 16:22:59;;;;;;;7.25;5.78;;;;;;;20.55;70.30;95805.56;10325619;28;20198;-71
2022/09/13 16:27:59;;;;;;;3.55;2.38;;;;;;;19.57;71.73;95810.97;10326013;28;20338;-71
2022/09/13 16:32:59;;;;;;;5.88;5.28;;;;;;;19.68;72.15;95815.47;10332957;28;20198;-72
2022/09/13 16:38:00;;;;;;;4.90;2.47;;;;;;;19.56;74.92;95843.91;10333071;28;20242;-72
2022/09/13 16:43:01;;;;;;;7.97;5.20;;;;;;;18.85;77.88;95866.03;10332504;28;20280;-72
2022/09/13 16:48:03;;;;;;;164.30;111.30;;;;;;;18.71;80.65;95867.22;10333075;28;20598;-73
2022/09/13 16:53:03;;;;;;;54.33;36.28;;;;;;;18.89;83.00;95876.97;10332301;28;20225;-72
2022/09/13 16:58:03;;;;;;;17.83;10.02;;;;;;;18.72;85.22;95861.69;10332251;28;20352;-72
2022/09/13 17:03:04;;;;;;;66.70;44.15;;;;;;;18.49;86.62;95869.63;10331546;28;20249;-72
2022/09/13 17:08:04;;;;;;;12.02;8.05;;;;;;;18.47;87.53;95863.75;10331670;28;20205;-72
2022/09/13 17:13:04;;;;;;;21.45;15.65;;;;;;;18.31;89.69;95873.94;10331592;28;20277;-72
2022/09/13 17:18:05;;;;;;;10.85;5.70;;;;;;;17.98;90.17;95866.47;10331444;28;20264;-72
2022/09/13 17:23:05;;;;;;;9.10;7.55;;;;;;;17.90;93.98;95869.41;10330086;28;20197;-73
2022/09/13 17:28:05;;;;;;;6.72;5.13;;;;;;;17.76;96.00;95871.38;10329093;28;20308;-72
2022/09/13 17:33:07;;;;;;;5.10;4.57;;;;;;;17.62;98.30;95868.88;10328800;28;20209;-73
2022/09/13 17:38:07;;;;;;;3.95;2.63;;;;;;;17.56;99.92;95869.78;10328906;28;20228;-74
2022/09/13 17:43:07;;;;;;;3.97;3.05;;;;;;;17.39;100.00;95871.41;10327902;28;20248;-73
2022/09/13 17:48:08;;;;;;;3.50;3.20;;;;;;;17.21;100.00;95864.25;10329182;28;20186;-74
2022/09/13 17:53:08;;;;;;;7.75;3.83;;;;;;;16.98;100.00;95867.53;10327723;28;20750;-74
2022/09/13 17:58:08;;;;;;;4.97;3.60;;;;;;;16.61;100.00;95885.91;10328717;28;20241;-73
2022/09/13 18:03:09;;;;;;;4.75;3.42;;;;;;;16.61;100.00;95878.78;10327809;28;20193;-74
2022/09/13 18:08:09;;;;;;;6.93;3.83;;;;;;;16.43;100.00;95868.13;10328395;28;20246;-74
2022/09/13 18:13:09;;;;;;;7.13;4.22;;;;;;;16.36;100.00;95876.13;10326883;28;20198;-73
2022/09/13 18:18:10;;;;;;;6.63;3.80;;;;;;;16.33;100.00;95880.00;10310005;28;20253;-73
2022/09/13 18:23:10;;;;;;;7.18;4.40;;;;;;;16.00;100.00;95886.31;10326476;28;20547;-73
2022/09/13 18:28:10;;;;;;;4.03;3.60;;;;;;;16.03;100.00;95871.84;10328618;28;20569;-73
2022/09/13 18:33:12;;;;;;;3.60;3.30;;;;;;;15.86;100.00;95876.81;10326153;28;20613;-73
2022/09/13 18:38:12;;;;;;;6.18;3.67;;;;;;;15.95;100.00;95878.19;10328303;28;20276;-74
2022/09/13 18:43:12;;;;;;;5.50;4.32;;;;;;;15.89;100.00;95872.94;10328209;28;20260;-73
2022/09/13 18:48:13;;;;;;;8.70;4.47;;;;;;;15.78;100.00;95882.34;10310242;28;20284;-73
2022/09/13 18:53:13;;;;;;;7.95;4.47;;;;;;;15.77;100.00;95880.66;10326643;28;20233;-73
2022/09/13 18:58:13;;;;;;;5.57;4.05;;;;;;;15.69;100.00;95873.78;10327328;28;20237;-73
2022/09/13 19:03:14;;;;;;;5.80;3.75;;;;;;;15.59;100.00;95882.16;10326856;28;20284;-73
2022/09/13 19:08:14;;;;;;;8.10;4.15;;;;;;;15.58;100.00;95882.38;10327788;28;20641;-73
2022/09/13 19:13:15;;;;;;;4.63;3.88;;;;;;;15.49;100.00;95879.94;10326317;28;20194;-72
2022/09/13 19:18:15;;;;;;;4.38;3.58;;;;;;;15.47;100.00;95868.81;10327201;28;20324;-73
2022/09/13 19:23:15;;;;;;;5.75;3.33;;;;;;;15.39;100.00;95868.22;10326121;28;20205;-73
2022/09/13 19:28:16;;;;;;;4.85;3.53;;;;;;;15.41;100.00;95861.72;10327180;28;20190;-73
2022/09/13 19:33:16;;;;;;;5.05;3.63;;;;;;;15.41;100.00;95867.00;10326382;28;20285;-73
2022/09/13 19:38:16;;;;;;;5.07;4.10;;;;;;;15.33;100.00;95869.88;10326706;28;20218;-73
2022/09/13 19:43:18;;;;;;;5.70;4.18;;;;;;;15.11;100.00;95872.72;10326546;28;20200;-72
2022/09/13 19:48:18;;;;;;;7.32;4.18;;;;;;;15.07;100.00;95870.72;10326484;28;20210;-73
2022/09/13 19:53:19;;;;;;;4.20;3.78;;;;;;;14.96;100.00;95864.22;10326184;28;20272;-72
2022/09/13 19:58:20;;;;;;;7.25;4.10;;;;;;;14.74;100.00;95877.63;10326354;28;20248;-72
2022/09/13 20:03:20;;;;;;;6.43;4.00;;;;;;;14.52;100.00;95873.56;10327022;28;20602;-73
2022/09/13 20:08:24;;;;;;;5.57;4.07;;;;;;;14.41;100.00;95878.41;10334505;28;20194;-72
2022/09/13 20:13:24;;;;;;;6.78;3.38;;;;;;;14.36;100.00;95877.41;10333811;28;20190;-72
2022/09/13 20:18:25;;;;;;;8.88;5.35;;;;;;;14.33;100.00;95875.97;10347371;28;20225;-72
2022/09/13 20:23:25;;;;;;;7.25;4.53;;;;;;;14.11;100.00;95879.78;10333033;28;20202;-73
2022/09/13 20:28:26;;;;;;;6.50;4.28;;;;;;;14.11;100.00;95877.16;10333661;28;20194;-74
2022/09/13 20:33:26;;;;;;;7.55;5.05;;;;;;;14.05;100.00;95876.13;10333071;28;20220;-74
2022/09/13 20:38:27;;;;;;;8.55;4.38;;;;;;;14.02;100.00;95882.59;10332686;28;20662;-73
2022/09/13 20:43:27;;;;;;;9.75;5.05;;;;;;;13.88;100.00;95889.63;10332764;28;20264;-73
2022/09/13 20:48:28;;;;;;;6.68;5.18;;;;;;;13.98;100.00;95888.44;10332618;28;20281;-73
2022/09/13 20:53:28;;;;;;;8.30;5.38;;;;;;;13.77;100.00;95887.59;10331073;28;20202;-73
2022/09/13 20:58:29;;;;;;;6.80;4.88;;;;;;;13.39;100.00;95898.53;10332146;28;20570;-73
2022/09/13 21:03:29;;;;;;;5.65;5.05;;;;;;;13.28;100.00;95906.97;10331802;28;20225;-72
2022/09/13 21:08:42;;;;;;;10.68;6.07;;;;;;;12.99;100.00;95914.84;10332062;28;20614;-73
2022/09/13 21:13:43;;;;;;;6.70;5.20;;;;;;;13.20;100.00;95905.28;10330986;28;20194;-73
2022/09/13 21:18:44;;;;;;;7.57;4.72;;;;;;;13.07;100.00;95892.84;10330822;28;20228;-72
2022/09/13 21:23:46;;;;;;;6.88;5.35;;;;;;;12.99;100.00;95903.53;10331261;28;20757;-72
2022/09/13 21:28:47;;;;;;;5.85;5.13;;;;;;;13.11;100.00;95907.25;10331474;28;20213;-73
2022/09/13 21:33:51;;;;;;;5.97;4.32;;;;;;;13.03;100.00;95900.31;10331236;28;20286;-73
2022/09/13 21:38:54;;;;;;;14.27;5.15;;;;;;;12.88;100.00;95909.28;10330257;28;20636;-72
2022/09/13 21:43:55;;;;;;;7.47;4.47;;;;;;;12.87;100.00;95918.19;10330497;28;20225;-72
2022/09/13 21:48:57;;;;;;;6.72;5.18;;;;;;;12.79;100.00;95924.41;10331032;28;20568;-72
2022/09/13 21:54:00;;;;;;;8.05;5.18;;;;;;;12.93;100.00;95920.88;10329897;28;20285;-72
2022/09/13 21:59:02;;;;;;;9.18;4.28;;;;;;;12.99;100.00;95921.94;10330323;28;20705;-72
2022/09/13 22:04:03;;;;;;;8.40;4.53;;;;;;;13.01;100.00;95910.19;10329471;28;20194;-74
2022/09/13 22:09:06;;;;;;;7.50;5.20;;;;;;;13.02;100.00;95921.56;10329721;28;20182;-74
2022/09/13 22:14:09;;;;;;;5.10;4.45;;;;;;;13.06;100.00;95917.50;10328909;28;20226;-73
2022/09/13 22:19:15;;;;;;;7.20;5.50;;;;;;;13.05;100.00;95913.28;10312026;28;20214;-73
2022/09/13 22:24:19;;;;;;;6.05;4.93;;;;;;;13.08;100.00;95914.69;10328767;28;20289;-72
2022/09/13 22:29:20;;;;;;;5.93;4.95;;;;;;;13.11;100.00;95923.03;10329029;28;20188;-73
2022/09/13 22:34:22;;;;;;;10.80;5.80;;;;;;;13.07;100.00;95919.16;10328486;28;20214;-74
2022/09/13 22:39:23;;;;;;;12.40;5.05;;;;;;;13.09;100.00;95921.59;10328621;28;20232;-74
2022/09/13 22:44:23;;;;;;;6.43;5.72;;;;;;;13.14;100.00;95927.06;10328041;28;20280;-73
2022/09/13 22:49:23;;;;;;;5.65;5.13;;;;;;;13.09;100.00;95922.38;10328431;28;20201;-73
2022/09/13 22:54:24;;;;;;;9.10;5.10;;;;;;;13.15;100.00;95929.50;10327579;28;20218;-73
2022/09/13 22:59:25;;;;;;;13.20;4.88;;;;;;;13.15;100.00;95932.13;10327945;28;20320;-73
2022/09/13 23:04:25;;;;;;;8.23;5.22;;;;;;;13.05;100.00;95939.56;10327504;28;20236;-73
2022/09/13 23:09:25;;;;;;;7.60;5.65;;;;;;;12.92;100.00;95928.94;10327458;28;20209;-73
2022/09/13 23:14:26;;;;;;;8.57;5.60;;;;;;;12.82;100.00;95926.66;10327100;28;20181;-73
2022/09/13 23:19:27;;;;;;;8.65;5.38;;;;;;;12.80;100.00;95928.66;10327197;28;20222;-73
2022/09/13 23:24:27;;;;;;;5.97;5.38;;;;;;;12.73;100.00;95938.31;10327008;28;20193;-73